Time;durP1;ratioP1;P1;durP2;ratioP2;P2;SDS_P1;SDS_P2;PMS_P1;PMS_P2;Temp;Humidity;BMP_temperature;BMP_pressure;BME280_temperature;BME280_humidity;BME280_pressure;Samples;Min_cycle;Max_cycle;Signal;HPM_P1;HPM_P2
2023/11/18 00:00:38;;;;;;;8.77;5.63;;;4.70;99.90;;;;;;4921189;29;20054;-76
2023/11/18 00:03:07;;;;;;;8.52;4.38;;;4.70;99.90;;;;;;4896024;29;20059;-77
2023/11/18 00:05:35;;;;;;;9.70;5.45;;;4.70;99.90;;;;;;4878250;29;20048;-76
2023/11/18 00:08:04;;;;;;;7.25;4.63;;;4.60;99.90;;;;;;4905584;29;20060;-76
2023/11/18 00:10:32;;;;;;;8.38;4.82;;;4.60;99.90;;;;;;4887892;29;20060;-76
2023/11/18 00:13:03;;;;;;;7.05;3.97;;;4.60;99.90;;;;;;4921926;29;20096;-77
2023/11/18 00:15:34;;;;;;;7.55;4.50;;;4.80;99.90;;;;;;4916496;29;20047;-76
2023/11/18 00:18:02;;;;;;;7.03;4.05;;;4.60;99.90;;;;;;4920267;29;22612;-76
2023/11/18 00:20:31;;;;;;;7.63;4.30;;;4.60;99.90;;;;;;4908239;29;20054;-75
2023/11/18 00:23:04;;;;;;;6.95;3.92;;;4.60;99.90;;;;;;4889881;29;20400;-78
2023/11/18 00:25:36;;;;;;;8.85;4.78;;;4.50;99.90;;;;;;4901825;29;20070;-76
2023/11/18 00:28:07;;;;;;;8.40;4.50;;;4.60;99.90;;;;;;4906503;29;20743;-76
2023/11/18 00:30:35;;;;;;;7.78;4.32;;;4.60;99.90;;;;;;4908799;29;20051;-76
2023/11/18 00:33:04;;;;;;;8.32;3.78;;;4.50;99.90;;;;;;4908211;29;20099;-77
2023/11/18 00:35:33;;;;;;;5.53;3.70;;;4.50;99.90;;;;;;4894348;29;20114;-78
2023/11/18 00:38:02;;;;;;;6.35;4.25;;;4.50;99.90;;;;;;4909286;29;20056;-74
2023/11/18 00:40:31;;;;;;;7.32;4.13;;;4.50;99.90;;;;;;4911375;29;20171;-76
2023/11/18 00:42:59;;;;;;;6.82;4.15;;;4.60;99.90;;;;;;4905116;29;20048;-76
2023/11/18 00:45:29;;;;;;;8.20;5.38;;;4.50;99.90;;;;;;4915021;28;20861;-78
2023/11/18 00:47:59;;;;;;;7.30;3.40;;;5.80;99.90;;;;;;4924509;28;20061;-75
2023/11/18 00:50:27;;;;;;;6.78;3.42;;;4.60;99.90;;;;;;4948220;28;20077;-77
2023/11/18 00:52:57;;;;;;;7.88;4.43;;;4.50;99.90;;;;;;4922360;28;20059;-76
2023/11/18 00:55:26;;;;;;;5.88;4.25;;;4.50;99.90;;;;;;4927963;28;20091;-76
2023/11/18 00:57:55;;;;;;;7.80;4.45;;;4.50;99.90;;;;;;4910588;29;20410;-76
2023/11/18 01:00:26;;;;;;;6.18;4.00;;;4.60;99.90;;;;;;4914878;28;20080;-77
2023/11/18 01:02:56;;;;;;;5.65;3.05;;;4.50;99.90;;;;;;4912043;28;20411;-75
2023/11/18 01:05:25;;;;;;;6.28;3.85;;;4.50;99.90;;;;;;4914543;29;20051;-75
2023/11/18 01:07:54;;;;;;;7.63;4.38;;;4.50;99.90;;;;;;4927293;28;20533;-76
2023/11/18 01:10:22;;;;;;;9.18;4.10;;;4.50;99.90;;;;;;4909172;28;20078;-74
2023/11/18 01:12:51;;;;;;;6.57;4.25;;;4.50;99.90;;;;;;4924870;29;20079;-75
2023/11/18 01:15:20;;;;;;;7.72;4.03;;;4.50;99.90;;;;;;4920378;28;22200;-76
2023/11/18 01:17:48;;;;;;;7.22;4.57;;;4.40;99.90;;;;;;4922865;28;20193;-75
2023/11/18 01:20:21;;;;;;;6.75;3.88;;;4.40;99.90;;;;;;4905328;28;20062;-75
2023/11/18 01:22:51;;;;;;;6.50;3.33;;;4.50;99.90;;;;;;4933537;28;20129;-75
2023/11/18 01:25:19;;;;;;;7.85;4.25;;;4.50;99.90;;;;;;4907587;29;20055;-75
2023/11/18 01:27:48;;;;;;;7.25;3.42;;;4.40;99.90;;;;;;4920880;28;20084;-75
2023/11/18 01:30:18;;;;;;;8.40;4.20;;;4.40;99.90;;;;;;4904991;29;20069;-75
2023/11/18 01:32:46;;;;;;;6.38;4.57;;;4.40;99.90;;;;;;4930310;28;20964;-75
2023/11/18 01:35:16;;;;;;;8.88;4.50;;;4.40;99.90;;;;;;4907635;28;20082;-76
2023/11/18 01:37:48;;;;;;;6.97;4.10;;;4.40;99.90;;;;;;4909562;29;20169;-76
2023/11/18 01:40:17;;;;;;;6.72;4.25;;;4.40;99.90;;;;;;4902558;28;20059;-75
2023/11/18 01:42:46;;;;;;;6.63;3.75;;;4.40;99.90;;;;;;4903486;29;20059;-74
2023/11/18 01:45:16;;;;;;;6.53;3.85;;;4.40;99.90;;;;;;4912115;29;20167;-76
2023/11/18 01:47:48;;;;;;;5.90;3.88;;;4.30;99.90;;;;;;4885446;29;20079;-76
2023/11/18 01:50:18;;;;;;;8.20;4.20;;;4.40;99.90;;;;;;4905186;29;20056;-74
2023/11/18 01:52:49;;;;;;;7.30;4.40;;;4.50;99.90;;;;;;4902173;29;20135;-75
2023/11/18 01:55:21;;;;;;;7.22;3.33;;;4.70;99.90;;;;;;4886263;29;20056;-76
2023/11/18 01:57:51;;;;;;;6.90;4.10;;;4.30;99.90;;;;;;4890101;29;20067;-76
2023/11/18 02:00:19;;;;;;;5.80;3.25;;;4.30;99.90;;;;;;4887331;29;20146;-75
2023/11/18 02:02:48;;;;;;;7.68;4.75;;;4.30;99.90;;;;;;4907413;29;20136;-75
2023/11/18 02:05:17;;;;;;;7.18;4.75;;;4.80;99.90;;;;;;4889320;29;20933;-74
2023/11/18 02:07:48;;;;;;;8.23;4.70;;;4.30;99.90;;;;;;4906945;29;20142;-76
2023/11/18 02:10:17;;;;;;;6.72;4.20;;;4.40;99.90;;;;;;4903312;29;21363;-77
2023/11/18 02:12:55;;;;;;;6.68;4.10;;;4.30;99.90;;;;;;4887526;29;20058;-76
2023/11/18 02:15:27;;;;;;;8.05;4.40;;;4.30;99.90;;;;;;4888012;29;20074;-77
2023/11/18 02:17:58;;;;;;;6.10;3.53;;;4.30;99.90;;;;;;4907926;29;20066;-76
2023/11/18 02:20:29;;;;;;;6.38;3.25;;;4.30;99.90;;;;;;4889513;29;20068;-76
2023/11/18 02:23:00;;;;;;;7.03;3.72;;;4.30;99.90;;;;;;4886989;29;22551;-76
2023/11/18 02:25:28;;;;;;;7.88;4.68;;;4.30;99.90;;;;;;4887404;29;20060;-75
2023/11/18 02:27:59;;;;;;;7.28;4.43;;;4.30;99.90;;;;;;4888205;29;20055;-75
2023/11/18 02:30:30;;;;;;;7.03;3.60;;;4.30;99.90;;;;;;4910082;29;20051;-75
2023/11/18 02:33:05;;;;;;;6.40;4.47;;;4.20;99.90;;;;;;4891631;29;20522;-76
2023/11/18 02:35:48;;;;;;;6.00;3.60;;;4.30;99.90;;;;;;4894331;29;20066;-77
2023/11/18 02:38:20;;;;;;;6.22;3.63;;;4.30;99.90;;;;;;4887075;29;20056;-78
2023/11/18 02:40:53;;;;;;;6.70;3.72;;;4.20;99.90;;;;;;4903080;29;20066;-75
2023/11/18 02:43:24;;;;;;;7.18;3.90;;;4.30;99.90;;;;;;4901220;29;20063;-76
2023/11/18 02:45:54;;;;;;;6.32;3.97;;;4.30;99.90;;;;;;4898774;29;20063;-76
2023/11/18 02:48:23;;;;;;;6.45;3.45;;;4.20;99.90;;;;;;4890649;29;20052;-75
2023/11/18 02:50:52;;;;;;;6.80;2.53;;;4.30;99.90;;;;;;4886084;29;20118;-76
2023/11/18 02:53:21;;;;;;;6.03;3.70;;;4.20;99.90;;;;;;4885294;29;20166;-76
2023/11/18 02:55:51;;;;;;;5.57;2.90;;;4.20;99.90;;;;;;4888406;29;20055;-76
2023/11/18 02:58:21;;;;;;;5.97;3.92;;;4.20;99.90;;;;;;4895007;29;20162;-75
2023/11/18 03:00:50;;;;;;;5.57;3.38;;;4.30;99.90;;;;;;4904908;29;20187;-75
2023/11/18 03:03:20;;;;;;;4.82;3.67;;;4.30;99.90;;;;;;4883470;29;20055;-74
2023/11/18 03:05:49;;;;;;;4.90;3.30;;;4.30;99.90;;;;;;4900696;29;20134;-74
2023/11/18 03:08:18;;;;;;;5.45;3.47;;;4.30;99.90;;;;;;4890591;29;20048;-76
2023/11/18 03:10:46;;;;;;;6.13;3.63;;;4.30;99.90;;;;;;4892813;29;20182;-76
2023/11/18 03:13:17;;;;;;;4.53;3.33;;;4.30;99.90;;;;;;4894013;29;20284;-76
2023/11/18 03:16:04;;;;;;;4.95;3.00;;;4.40;99.90;;;;;;4905440;29;20062;-77
2023/11/18 03:18:38;;;;;;;6.70;3.30;;;4.50;99.90;;;;;;4911861;29;20705;-77
2023/11/18 03:21:07;;;;;;;7.03;4.28;;;5.50;99.90;;;;;;4895030;29;20059;-75
2023/11/18 03:23:36;;;;;;;6.53;3.38;;;4.30;99.90;;;;;;4896115;29;20652;-76
2023/11/18 03:26:05;;;;;;;5.68;3.75;;;4.30;99.90;;;;;;4906205;29;21004;-74
2023/11/18 03:28:33;;;;;;;5.10;4.07;;;4.40;99.90;;;;;;4892395;29;20063;-76
2023/11/18 03:31:04;;;;;;;5.85;3.10;;;4.40;99.90;;;;;;4899005;29;20070;-74
2023/11/18 03:33:33;;;;;;;5.68;3.50;;;4.30;99.90;;;;;;4898562;29;20780;-75
2023/11/18 03:36:02;;;;;;;6.15;4.38;;;4.30;99.90;;;;;;4901198;29;20056;-75
2023/11/18 03:38:30;;;;;;;5.40;4.38;;;4.40;99.90;;;;;;4919071;29;20103;-74
2023/11/18 03:40:59;;;;;;;5.97;3.78;;;4.40;99.90;;;;;;4900375;29;20179;-75
2023/11/18 03:43:28;;;;;;;5.72;3.88;;;4.70;99.90;;;;;;4902177;29;20047;-75
2023/11/18 03:45:57;;;;;;;7.55;3.67;;;4.40;99.90;;;;;;4923116;28;20059;-75
2023/11/18 03:48:30;;;;;;;7.57;5.28;;;4.40;99.90;;;;;;4923706;29;20047;-76
2023/11/18 03:50:58;;;;;;;7.70;4.75;;;4.40;99.90;;;;;;4931861;28;20063;-76
2023/11/18 03:53:27;;;;;;;8.30;3.90;;;4.40;99.90;;;;;;4931065;28;20481;-75
2023/11/18 03:55:56;;;;;;;6.60;3.67;;;4.40;99.90;;;;;;4906293;29;20134;-74
2023/11/18 03:58:25;;;;;;;7.13;5.50;;;5.30;99.90;;;;;;4921069;28;20063;-75
2023/11/18 04:00:53;;;;;;;7.32;5.07;;;4.50;99.90;;;;;;4936940;28;20739;-74
2023/11/18 04:03:22;;;;;;;6.25;4.65;;;4.40;99.90;;;;;;4917110;28;20097;-75
2023/11/18 04:05:52;;;;;;;6.55;4.90;;;4.40;99.90;;;;;;4928635;28;20051;-75
2023/11/18 04:08:21;;;;;;;6.35;4.63;;;4.40;99.90;;;;;;4937434;28;20059;-76
2023/11/18 04:10:49;;;;;;;6.80;4.97;;;4.40;99.90;;;;;;4937325;28;20090;-75
2023/11/18 04:13:19;;;;;;;5.75;4.90;;;4.40;99.90;;;;;;4927202;29;20065;-74
2023/11/18 04:15:50;;;;;;;8.32;4.40;;;4.40;99.90;;;;;;4937915;28;20078;-76
2023/11/18 04:18:19;;;;;;;6.47;4.50;;;4.50;99.90;;;;;;4916680;28;20051;-75
2023/11/18 04:20:47;;;;;;;8.35;4.43;;;4.50;99.90;;;;;;4917073;28;20059;-75
2023/11/18 04:23:20;;;;;;;5.35;3.88;;;4.40;99.90;;;;;;4917124;29;20080;-75
2023/11/18 04:25:49;;;;;;;7.40;4.60;;;4.40;99.90;;;;;;4911963;28;20059;-74
2023/11/18 04:28:19;;;;;;;10.80;5.13;;;4.40;99.90;;;;;;4921261;28;20054;-76
2023/11/18 04:30:48;;;;;;;7.13;4.30;;;4.40;99.90;;;;;;4925574;29;20061;-76
2023/11/18 04:33:18;;;;;;;8.82;5.53;;;4.40;99.90;;;;;;4919236;28;20118;-75
2023/11/18 04:35:47;;;;;;;8.38;4.43;;;4.40;99.90;;;;;;4937290;28;20091;-74
2023/11/18 04:38:16;;;;;;;5.95;3.38;;;4.50;99.90;;;;;;4922958;29;20047;-75
2023/11/18 04:40:46;;;;;;;6.75;4.88;;;4.50;99.90;;;;;;4940643;28;20050;-75
2023/11/18 04:43:15;;;;;;;6.97;3.70;;;4.50;99.90;;;;;;4926864;28;20110;-75
2023/11/18 04:45:45;;;;;;;6.57;4.47;;;4.40;99.90;;;;;;4931542;28;20067;-75
2023/11/18 04:48:14;;;;;;;7.30;4.05;;;4.40;99.90;;;;;;4930700;28;20051;-77
2023/11/18 04:50:43;;;;;;;7.50;3.95;;;4.50;99.90;;;;;;4937736;28;22040;-74
2023/11/18 04:53:12;;;;;;;5.38;3.90;;;4.50;99.90;;;;;;4946226;28;22071;-74
2023/11/18 04:55:40;;;;;;;8.23;4.18;;;4.60;99.90;;;;;;4936377;28;20047;-76
2023/11/18 04:58:10;;;;;;;4.80;3.63;;;4.60;99.90;;;;;;4934570;28;20442;-76
2023/11/18 05:00:39;;;;;;;4.93;3.50;;;4.60;99.90;;;;;;4948104;28;20208;-75
2023/11/18 05:03:09;;;;;;;9.07;4.20;;;4.60;99.90;;;;;;4939284;28;20046;-74
2023/11/18 05:05:38;;;;;;;4.82;3.40;;;4.60;99.90;;;;;;4921974;29;20051;-76
2023/11/18 05:08:07;;;;;;;5.40;3.50;;;4.70;99.90;;;;;;4936778;28;20415;-74
2023/11/18 05:10:38;;;;;;;4.53;2.67;;;4.70;99.90;;;;;;4917569;28;20055;-74
2023/11/18 05:13:06;;;;;;;5.03;3.67;;;4.70;99.90;;;;;;4936586;28;20165;-74
2023/11/18 05:15:37;;;;;;;4.07;2.70;;;4.60;99.90;;;;;;4923302;29;20178;-75
2023/11/18 05:18:09;;;;;;;5.55;3.95;;;4.70;99.90;;;;;;4933020;28;20059;-73
2023/11/18 05:20:38;;;;;;;6.10;3.22;;;4.70;99.90;;;;;;4933902;29;21087;-75
2023/11/18 05:23:09;;;;;;;3.97;3.08;;;4.70;99.90;;;;;;4916887;29;20055;-76
2023/11/18 05:25:40;;;;;;;6.00;2.55;;;4.70;99.90;;;;;;4931370;28;20058;-76
2023/11/18 05:28:09;;;;;;;3.33;2.28;;;4.70;99.90;;;;;;4935506;28;20058;-75
2023/11/18 05:30:40;;;;;;;4.00;2.40;;;4.80;99.90;;;;;;4928367;28;20055;-75
2023/11/18 05:33:10;;;;;;;3.50;1.77;;;4.80;99.90;;;;;;4930129;28;20066;-75
2023/11/18 05:35:43;;;;;;;6.43;2.72;;;4.80;99.90;;;;;;4914644;29;20619;-76
2023/11/18 05:38:16;;;;;;;3.08;2.30;;;4.80;99.90;;;;;;4932967;28;20050;-75
2023/11/18 05:40:54;;;;;;;5.00;2.42;;;4.90;99.90;;;;;;4931376;28;20062;-75
2023/11/18 05:43:25;;;;;;;4.07;2.45;;;4.70;99.90;;;;;;4931018;28;20051;-76
2023/11/18 05:48:40;;;;;;;2.88;1.40;;;4.80;99.90;;;;;;4903143;29;20059;-75
2023/11/18 05:51:12;;;;;;;3.72;2.35;;;4.80;99.90;;;;;;4905005;29;20055;-76
2023/11/18 05:53:41;;;;;;;3.72;1.83;;;4.80;99.90;;;;;;4879116;29;20134;-75
2023/11/18 05:56:10;;;;;;;4.47;2.88;;;4.80;99.90;;;;;;4924150;29;20150;-75
2023/11/18 05:58:39;;;;;;;3.75;3.28;;;4.70;99.90;;;;;;4902099;29;20074;-76
2023/11/18 06:01:11;;;;;;;4.65;2.65;;;4.80;99.90;;;;;;4890830;29;20611;-76
2023/11/18 06:03:39;;;;;;;3.80;2.67;;;4.80;99.90;;;;;;4912169;29;20103;-75
2023/11/18 06:06:09;;;;;;;3.38;2.22;;;4.80;99.90;;;;;;4903559;29;20070;-76
2023/11/18 06:08:40;;;;;;;5.68;2.72;;;4.80;99.90;;;;;;4892687;29;20051;-76
2023/11/18 06:11:15;;;;;;;4.00;2.88;;;4.70;99.90;;;;;;4920765;29;20052;-76
2023/11/18 06:13:46;;;;;;;4.50;3.10;;;4.80;99.90;;;;;;4906221;29;20052;-76
2023/11/18 06:16:17;;;;;;;4.63;2.88;;;4.70;99.90;;;;;;4888130;29;20055;-76
2023/11/18 06:18:48;;;;;;;4.30;2.80;;;4.70;99.90;;;;;;4903277;29;20052;-76
2023/11/18 06:21:18;;;;;;;6.07;3.00;;;4.70;99.90;;;;;;4906193;29;20052;-77
2023/11/18 06:23:49;;;;;;;4.43;2.47;;;4.70;99.90;;;;;;4890603;29;20055;-75
2023/11/18 06:26:21;;;;;;;5.90;3.60;;;4.70;99.90;;;;;;4906833;29;20048;-76
2023/11/18 06:28:50;;;;;;;3.38;2.20;;;5.60;99.90;;;;;;4888902;29;20077;-77
2023/11/18 06:31:20;;;;;;;4.03;2.78;;;4.70;99.90;;;;;;4906329;29;20886;-75
2023/11/18 06:33:49;;;;;;;5.65;3.20;;;4.70;99.90;;;;;;4887192;29;20068;-75
2023/11/18 06:36:21;;;;;;;4.43;2.97;;;4.70;99.90;;;;;;4907430;29;20044;-74
2023/11/18 06:38:51;;;;;;;4.97;3.40;;;4.80;99.90;;;;;;4889218;29;20055;-77
2023/11/18 06:41:22;;;;;;;5.57;3.50;;;4.80;99.90;;;;;;4891923;29;20056;-76
2023/11/18 06:43:56;;;;;;;5.68;3.47;;;4.80;99.90;;;;;;4893373;29;20583;-75
2023/11/18 06:46:31;;;;;;;5.00;2.78;;;4.80;99.90;;;;;;4931478;28;20494;-77
2023/11/18 06:49:03;;;;;;;6.55;3.97;;;4.80;99.90;;;;;;4904911;28;20160;-76
2023/11/18 06:51:35;;;;;;;4.38;2.63;;;4.80;99.90;;;;;;4931507;28;20063;-78
2023/11/18 06:54:08;;;;;;;5.03;3.35;;;4.80;99.90;;;;;;4937291;28;20062;-75
2023/11/18 06:56:39;;;;;;;5.45;3.00;;;4.90;99.90;;;;;;4905202;29;20197;-76
2023/11/18 06:59:08;;;;;;;5.43;2.67;;;5.00;99.90;;;;;;4931504;28;20039;-77
2023/11/18 07:01:40;;;;;;;5.65;3.20;;;5.10;99.90;;;;;;4920761;28;20059;-76
2023/11/18 07:04:09;;;;;;;4.75;2.58;;;5.00;99.90;;;;;;4923504;28;20048;-76
2023/11/18 07:06:39;;;;;;;4.15;2.83;;;5.10;99.90;;;;;;4925864;28;20500;-75
2023/11/18 07:09:13;;;;;;;4.78;2.63;;;5.10;99.90;;;;;;4912962;29;20035;-75
2023/11/18 07:11:42;;;;;;;3.88;2.75;;;5.20;99.90;;;;;;4917410;29;20193;-75
2023/11/18 07:14:10;;;;;;;4.43;2.72;;;5.20;99.90;;;;;;4932881;28;20158;-75
2023/11/18 07:16:41;;;;;;;3.35;2.33;;;5.20;99.90;;;;;;4929959;28;20074;-75
2023/11/18 07:19:14;;;;;;;5.53;2.20;;;5.30;99.90;;;;;;4927656;28;20109;-75
2023/11/18 07:21:43;;;;;;;9.23;2.63;;;5.30;99.90;;;;;;4924248;29;20039;-75
2023/11/18 07:24:12;;;;;;;4.40;1.75;;;5.30;99.90;;;;;;4927444;28;20134;-75
2023/11/18 07:26:40;;;;;;;3.97;2.67;;;5.40;99.90;;;;;;4933539;28;20047;-75
2023/11/18 07:29:08;;;;;;;2.80;1.73;;;5.40;99.90;;;;;;4941191;29;20051;-77
2023/11/18 07:31:37;;;;;;;4.28;1.95;;;5.40;99.90;;;;;;4943095;28;20043;-77
2023/11/18 07:34:07;;;;;;;2.65;1.63;;;5.50;99.90;;;;;;4918340;28;20063;-77
2023/11/18 07:36:35;;;;;;;4.05;1.55;;;5.60;99.90;;;;;;4939258;29;20086;-76
2023/11/18 07:39:10;;;;;;;26.60;2.45;;;5.60;99.90;;;;;;4937807;28;20074;-76
2023/11/18 07:41:45;;;;;;;3.53;1.83;;;5.60;99.90;;;;;;4919935;28;20035;-76
2023/11/18 07:44:16;;;;;;;3.15;1.83;;;5.70;99.90;;;;;;4924560;28;20091;-78
2023/11/18 07:46:45;;;;;;;3.30;1.75;;;5.70;99.90;;;;;;4937476;28;20059;-78
2023/11/18 07:49:16;;;;;;;3.17;1.80;;;5.70;99.90;;;;;;4939956;28;20051;-76
2023/11/18 07:51:46;;;;;;;2.33;1.60;;;5.80;99.90;;;;;;4926454;28;20158;-76
2023/11/18 07:54:15;;;;;;;2.67;1.77;;;5.90;99.90;;;;;;4904960;28;20141;-76
2023/11/18 07:56:48;;;;;;;3.85;1.63;;;5.90;99.90;;;;;;4934271;29;22302;-76
2023/11/18 07:59:18;;;;;;;2.47;1.58;;;5.90;99.90;;;;;;4918725;29;20518;-75
2023/11/18 08:01:53;;;;;;;5.65;1.60;;;6.50;99.90;;;;;;4936922;28;20184;-76
2023/11/18 08:04:25;;;;;;;3.45;1.92;;;6.00;99.90;;;;;;4940381;28;20058;-75
2023/11/18 08:06:55;;;;;;;3.33;1.40;;;5.90;99.90;;;;;;4930501;28;21888;-76
2023/11/18 08:09:26;;;;;;;2.63;1.08;;;6.20;99.90;;;;;;4919568;28;20051;-76
2023/11/18 08:11:55;;;;;;;3.08;1.15;;;6.20;99.90;;;;;;4919106;29;20134;-77
2023/11/18 08:14:24;;;;;;;3.28;1.30;;;6.20;99.90;;;;;;4937220;28;20042;-77
2023/11/18 08:16:55;;;;;;;3.40;1.25;;;6.30;99.90;;;;;;4938330;28;20055;-78
2023/11/18 08:19:25;;;;;;;3.60;1.90;;;6.50;99.90;;;;;;4916566;28;20039;-78
2023/11/18 08:21:58;;;;;;;1.77;1.25;;;6.90;99.90;;;;;;4927908;29;20074;-76
2023/11/18 08:24:26;;;;;;;2.95;1.20;;;6.40;99.90;;;;;;4945640;28;20115;-77
2023/11/18 08:27:03;;;;;;;1.98;1.08;;;6.40;99.90;;;;;;4940275;28;20086;-76
2023/11/18 08:29:34;;;;;;;1.75;1.08;;;6.40;99.90;;;;;;4951731;28;20082;-77
2023/11/18 08:32:04;;;;;;;2.17;1.20;;;6.40;99.90;;;;;;4940510;28;22088;-75
2023/11/18 08:34:35;;;;;;;1.50;0.60;;;6.90;99.90;;;;;;4942595;28;20053;-77
2023/11/18 08:37:04;;;;;;;1.98;1.27;;;6.30;99.90;;;;;;4924535;28;20142;-76
2023/11/18 08:39:35;;;;;;;1.50;1.02;;;6.70;99.90;;;;;;4945007;28;20052;-76
2023/11/18 08:42:14;;;;;;;2.17;0.88;;;6.60;99.80;;;;;;4944321;28;20055;-77
2023/11/18 08:44:47;;;;;;;1.50;0.90;;;6.50;99.90;;;;;;4928116;28;20055;-75
2023/11/18 08:47:16;;;;;;;;;;;6.90;99.90;;;;;;4927580;28;20055;-76
2023/11/18 08:49:47;;;;;;;2.97;0.93;;;6.20;99.90;;;;;;4932369;29;19930;-79
2023/11/18 08:52:17;;;;;;;1.90;1.17;;;7.60;99.90;;;;;;4923568;29;20047;-76
2023/11/18 08:57:48;;;;;;;7.38;2.95;;;6.90;99.90;;;;;;4945255;28;20055;-78
2023/11/18 09:00:46;;;;;;;2.65;1.70;;;6.00;99.90;;;;;;4926460;28;20155;-76
2023/11/18 09:03:17;;;;;;;3.67;1.73;;;6.70;99.10;;;;;;4943353;28;20059;-77
2023/11/18 09:05:56;;;;;;;2.65;1.70;;;6.90;99.60;;;;;;4941987;28;21842;-78
2023/11/18 09:08:29;;;;;;;1.45;1.05;;;7.60;99.90;;;;;;4942881;28;20043;-78
2023/11/18 09:10:58;;;;;;;1.92;1.10;;;6.70;98.80;;;;;;4943728;28;20051;-76
2023/11/18 09:13:31;;;;;;;4.68;1.38;;;6.80;98.60;;;;;;4944635;28;20060;-76
2023/11/18 09:16:08;;;;;;;1.80;0.98;;;6.80;98.90;;;;;;4928923;28;20066;-76
2023/11/18 09:18:39;;;;;;;1.88;1.02;;;7.60;98.60;;;;;;4945601;28;20047;-79
2023/11/18 09:21:24;;;;;;;1.15;0.63;;;7.50;99.40;;;;;;4928190;29;20055;-77
2023/11/18 09:23:59;;;;;;;3.08;1.10;;;6.90;98.20;;;;;;4944223;28;20035;-79
2023/11/18 09:26:29;;;;;;;2.45;0.80;;;6.90;98.50;;;;;;4941167;28;20226;-78
2023/11/18 09:29:01;;;;;;;1.25;0.77;;;7.00;98.40;;;;;;4942312;28;20051;-78
2023/11/18 09:31:33;;;;;;;2.05;0.85;;;7.10;98.40;;;;;;4927901;29;20062;-77
2023/11/18 09:34:06;;;;;;;2.30;0.95;;;5.40;98.80;;;;;;4930147;29;20061;-78
2023/11/18 09:36:43;;;;;;;1.88;0.95;;;7.90;99.10;;;;;;4929133;28;20043;-77
2023/11/18 09:39:28;;;;;;;3.55;1.05;;;8.40;98.20;;;;;;4942785;28;20066;-76
2023/11/18 09:41:58;;;;;;;4.75;0.90;;;7.30;98.80;;;;;;4929721;29;20055;-76
2023/11/18 09:44:28;;;;;;;1.92;1.00;;;7.30;98.20;;;;;;4943605;29;20540;-77
2023/11/18 09:47:04;;;;;;;2.53;1.63;;;7.30;98.70;;;;;;4936079;29;20042;-79
2023/11/18 09:49:44;;;;;;;3.40;1.00;;;7.00;98.00;;;;;;4929196;29;20062;-77
2023/11/18 09:52:33;;;;;;;2.22;1.20;;;7.10;97.40;;;;;;4942610;28;20051;-76
2023/11/18 09:55:14;;;;;;;1.70;0.85;;;7.70;97.30;;;;;;4945043;28;20059;-77
2023/11/18 09:57:57;;;;;;;1.88;1.20;;;7.10;97.10;;;;;;4934846;29;20126;-78
2023/11/18 10:00:32;;;;;;;2.30;0.80;;;7.40;97.10;;;;;;4940139;28;20047;-76
2023/11/18 10:03:08;;;;;;;1.55;0.85;;;7.30;97.20;;;;;;4945583;28;20051;-77
2023/11/18 10:05:42;;;;;;;2.95;0.80;;;7.40;97.30;;;;;;4917505;29;20055;-78
2023/11/18 10:08:16;;;;;;;1.00;0.57;;;7.30;96.80;;;;;;4927106;29;20058;-77
2023/11/18 10:11:04;;;;;;;1.42;0.60;;;7.30;97.20;;;;;;4943858;28;20401;-78
2023/11/18 10:13:40;;;;;;;1.10;0.95;;;7.30;97.00;;;;;;4945055;28;20103;-76
2023/11/18 10:16:19;;;;;;;2.60;1.10;;;7.30;96.70;;;;;;4925659;29;20816;-75
2023/11/18 10:18:53;;;;;;;1.95;1.00;;;7.20;96.90;;;;;;4923445;29;20070;-74
2023/11/18 10:21:43;;;;;;;2.05;0.73;;;7.20;96.80;;;;;;4940456;28;20118;-76
2023/11/18 10:24:19;;;;;;;2.88;1.80;;;8.20;96.90;;;;;;4944765;29;21402;-76
2023/11/18 10:27:08;;;;;;;2.88;1.45;;;7.30;96.90;;;;;;4923523;29;22266;-74
2023/11/18 10:29:42;;;;;;;3.88;2.28;;;7.40;96.70;;;;;;4946114;29;20494;-75
2023/11/18 10:32:22;;;;;;;7.05;4.53;;;7.40;96.20;;;;;;4924512;29;20059;-75
2023/11/18 10:35:07;;;;;;;3.22;1.10;;;7.40;96.80;;;;;;4925017;29;20083;-74
2023/11/18 10:37:46;;;;;;;1.88;1.15;;;7.50;96.00;;;;;;4940318;28;20051;-74
2023/11/18 10:40:24;;;;;;;3.65;1.80;;;7.50;96.00;;;;;;4947236;28;20047;-74
2023/11/18 10:42:52;;;;;;;7.10;3.03;;;7.60;96.30;;;;;;4929508;28;20077;-74
2023/11/18 10:45:27;;;;;;;9.75;5.18;;;7.80;96.40;;;;;;4924280;29;20081;-75
2023/11/18 10:48:03;;;;;;;5.50;4.70;;;7.80;95.50;;;;;;4925431;29;20051;-75
2023/11/18 10:50:39;;;;;;;3.75;1.10;;;7.70;95.60;;;;;;4910847;29;20434;-76
2023/11/18 10:53:16;;;;;;;2.25;0.82;;;7.80;95.70;;;;;;4875957;29;20111;-74
2023/11/18 10:55:51;;;;;;;2.67;1.50;;;7.60;95.40;;;;;;4923399;29;20087;-75
2023/11/18 10:58:36;;;;;;;1.83;0.90;;;7.30;95.50;;;;;;4872436;29;20061;-75
2023/11/18 11:01:11;;;;;;;2.80;1.08;;;7.70;95.10;;;;;;4908889;29;20048;-75
2023/11/18 11:03:56;;;;;;;2.65;1.65;;;7.60;95.10;;;;;;4883793;29;20054;-74
2023/11/18 11:06:30;;;;;;;1.10;0.40;;;7.70;95.30;;;;;;4909681;29;20559;-74
2023/11/18 11:09:16;;;;;;;4.38;0.70;;;7.80;95.00;;;;;;4909132;29;20063;-74
2023/11/18 11:11:51;;;;;;;1.10;0.52;;;8.50;94.70;;;;;;4925112;29;20143;-76
2023/11/18 11:14:41;;;;;;;5.43;3.30;;;7.90;94.50;;;;;;4905569;29;20044;-75
2023/11/18 11:17:29;;;;;;;0.65;0.30;;;8.30;94.70;;;;;;4906147;29;20084;-75
2023/11/18 11:20:17;;;;;;;1.45;0.55;;;7.90;94.20;;;;;;4893917;29;20067;-77
2023/11/18 11:23:00;;;;;;;0.93;0.47;;;7.90;94.10;;;;;;4909933;29;20059;-76
2023/11/18 11:25:37;;;;;;;2.25;0.30;;;7.90;94.10;;;;;;4891780;29;20052;-77
2023/11/18 11:28:19;;;;;;;2.60;1.13;;;8.50;94.10;;;;;;4914664;29;20063;-78
2023/11/18 11:30:54;;;;;;;1.08;0.30;;;7.90;93.60;;;;;;4911172;29;20064;-76
2023/11/18 11:33:40;;;;;;;11.27;1.85;;;7.90;93.90;;;;;;4911544;29;20111;-77
2023/11/18 11:36:12;;;;;;;;;;;8.40;94.90;;;;;;4905560;29;20088;-77
2023/11/18 11:38:46;;;;;;;0.88;0.20;;;9.30;94.90;;;;;;4936527;29;20314;-76
2023/11/18 11:41:26;;;;;;;1.47;0.50;;;8.40;93.80;;;;;;4922882;29;20044;-75
2023/11/18 11:44:00;;;;;;;1.17;0.50;;;7.90;93.30;;;;;;4907468;29;20330;-77
2023/11/18 11:46:34;;;;;;;2.47;0.40;;;7.80;93.50;;;;;;4905955;29;20063;-77
2023/11/18 11:49:15;;;;;;;0.90;0.40;;;7.90;93.50;;;;;;4927362;29;20058;-76
2023/11/18 11:51:49;;;;;;;1.42;0.30;;;7.80;93.00;;;;;;4909214;29;20181;-76
2023/11/18 11:54:24;;;;;;;3.10;0.40;;;7.90;93.10;;;;;;4934245;29;20067;-76
2023/11/18 11:56:59;;;;;;;1.20;0.30;;;7.80;92.70;;;;;;4898601;28;20054;-77
2023/11/18 12:00:14;;;;;;;1.20;0.30;;;7.90;93.40;;;;;;4931081;29;20158;-77
2023/11/18 12:02:51;;;;;;;3.47;1.98;;;8.00;93.00;;;;;;4898293;29;20258;-78
2023/11/18 12:05:26;;;;;;;7.03;4.22;;;7.90;93.20;;;;;;4891455;29;20056;-78
2023/11/18 12:07:58;;;;;;;3.75;2.88;;;8.00;93.00;;;;;;4926719;29;20052;-80
2023/11/18 12:10:30;;;;;;;1.20;0.35;;;8.00;92.50;;;;;;4915468;29;20052;-78
2023/11/18 12:13:15;;;;;;;1.73;1.15;;;8.00;92.70;;;;;;4918874;29;21990;-76
2023/11/18 12:15:56;;;;;;;3.10;2.80;;;8.00;92.30;;;;;;4890537;29;20119;-79
2023/11/18 12:18:26;;;;;;;0.57;0.20;;;7.90;93.00;;;;;;4910561;29;20039;-80
2023/11/18 12:21:02;;;;;;;0.50;0.20;;;8.20;92.80;;;;;;4900766;29;20071;-77
2023/11/18 12:23:40;;;;;;;0.73;0.10;;;7.90;91.90;;;;;;4927871;29;20055;-76
2023/11/18 12:26:43;;;;;;;0.90;0.20;;;8.10;92.10;;;;;;4923042;29;20052;-78
2023/11/18 12:29:34;;;;;;;2.03;0.40;;;7.90;91.90;;;;;;4882798;29;20053;-77
2023/11/18 12:32:05;;;;;;;0.65;0.30;;;7.90;92.00;;;;;;4881824;29;20052;-77
2023/11/18 12:34:53;;;;;;;0.93;0.28;;;7.90;92.50;;;;;;4868038;29;22128;-79
2023/11/18 12:37:49;;;;;;;0.95;0.40;;;7.90;92.30;;;;;;4862290;29;20121;-76
2023/11/18 12:41:11;;;;;;;0.52;0.20;;;7.90;92.10;;;;;;4882503;29;20055;-76
2023/11/18 12:43:53;;;;;;;3.20;0.40;;;7.90;92.60;;;;;;4882221;29;20072;-76
2023/11/18 12:46:52;;;;;;;0.40;0.20;;;7.80;92.60;;;;;;4882344;29;20073;-76
2023/11/18 12:49:27;;;;;;;4.65;2.28;;;7.70;92.60;;;;;;4865383;29;22295;-76
2023/11/18 12:52:00;;;;;;;0.93;0.30;;;7.70;92.40;;;;;;4885406;29;20068;-76
2023/11/18 12:54:37;;;;;;;1.15;0.40;;;7.70;92.30;;;;;;4889356;29;20077;-77
2023/11/18 12:57:09;;;;;;;1.27;0.45;;;7.70;92.00;;;;;;4847103;29;20139;-76
2023/11/18 12:59:41;;;;;;;;;;;8.30;92.20;;;;;;4895693;29;20079;-77
2023/11/18 13:02:19;;;;;;;2.17;0.38;;;7.60;91.90;;;;;;4928283;29;19927;-78
2023/11/18 13:05:15;;;;;;;1.58;0.40;;;6.60;91.90;;;;;;4905198;29;20459;-77
2023/11/18 13:07:50;;;;;;;1.30;0.43;;;7.60;92.50;;;;;;4932442;29;20059;-77
2023/11/18 13:10:38;;;;;;;1.80;0.70;;;7.60;92.20;;;;;;4921908;29;20071;-77
2023/11/18 13:13:08;;;;;;;1.08;0.30;;;7.60;92.40;;;;;;4895139;29;20051;-77
2023/11/18 13:15:39;;;;;;;1.23;0.20;;;7.60;92.20;;;;;;4924248;29;20506;-76
2023/11/18 13:18:07;;;;;;;0.43;0.20;;;7.60;92.80;;;;;;4924588;29;20091;-76
2023/11/18 13:20:39;;;;;;;1.15;0.52;;;7.50;92.70;;;;;;4925241;29;20048;-74
2023/11/18 13:23:10;;;;;;;2.72;0.40;;;7.80;93.10;;;;;;4874363;29;20051;-76
2023/11/18 13:25:41;;;;;;;2.25;0.30;;;7.50;93.00;;;;;;4908213;29;20048;-75
2023/11/18 13:28:10;;;;;;;0.80;0.30;;;8.30;92.90;;;;;;4892748;29;20062;-77
2023/11/18 13:30:43;;;;;;;1.23;0.50;;;7.50;92.90;;;;;;4876155;29;20058;-76
2023/11/18 13:33:11;;;;;;;1.42;0.30;;;7.50;93.20;;;;;;4904737;29;20067;-76